Time;durP1;ratioP1;P1;durP2;ratioP2;P2;SDS_P1;SDS_P2;PMS_P1;PMS_P2;Temp;Humidity;BMP_temperature;BMP_pressure;BME280_temperature;BME280_humidity;BME280_pressure;Samples;Min_cycle;Max_cycle;Signal;HPM_P1;HPM_P2
2021/09/17 00:01:25;;;;;;;;;28.67;28.67;29.50;38.90;;;;;;5159032;27;8741;-65
2021/09/17 00:03:51;;;;;;;;;28.33;27.67;29.40;39.00;;;;;;5159241;27;8757;-65
2021/09/17 00:06:17;;;;;;;;;30.67;30.00;29.40;39.50;;;;;;5158933;27;8769;-65
2021/09/17 00:08:43;;;;;;;;;25.33;25.33;29.40;39.30;;;;;;5159033;27;8777;-64
2021/09/17 00:11:09;;;;;;;;;31.00;30.00;29.50;39.50;;;;;;5159017;27;9422;-65
2021/09/17 00:13:36;;;;;;;;;29.33;29.33;29.40;39.60;;;;;;5159047;27;8742;-65
2021/09/17 00:16:03;;;;;;;;;31.00;30.00;29.40;39.60;;;;;;5158951;27;8765;-65
2021/09/17 00:18:29;;;;;;;;;22.67;22.67;29.40;39.70;;;;;;5158204;27;8865;-64
2021/09/17 00:20:55;;;;;;;;;25.33;25.33;29.20;39.80;;;;;;5158484;27;8769;-64
2021/09/17 00:23:21;;;;;;;;;26.67;25.67;29.10;40.00;;;;;;5158923;27;9513;-64
2021/09/17 00:25:47;;;;;;;;;28.67;26.67;29.10;40.10;;;;;;5158814;27;9442;-65
2021/09/17 00:28:13;;;;;;;;;22.33;22.33;29.20;40.00;;;;;;5158502;27;8786;-64
2021/09/17 00:30:38;;;;;;;;;26.00;25.33;29.20;40.10;;;;;;5158344;27;8801;-65
2021/09/17 00:33:04;;;;;;;;;25.33;25.33;29.10;40.10;;;;;;5158600;27;9529;-65
2021/09/17 00:35:31;;;;;;;;;22.33;22.33;29.20;40.10;;;;;;5158335;27;9410;-64
2021/09/17 00:37:57;;;;;;;;;25.33;24.33;29.20;40.00;;;;;;5158538;27;8788;-64
2021/09/17 00:40:23;;;;;;;;;24.67;24.67;29.10;40.10;;;;;;5158256;27;9490;-65
2021/09/17 00:42:49;;;;;;;;;23.33;23.33;29.10;40.30;;;;;;5158451;27;8757;-64
2021/09/17 00:45:15;;;;;;;;;20.00;20.00;29.10;40.30;;;;;;5158135;27;8749;-64
2021/09/17 00:47:42;;;;;;;;;26.00;26.00;29.10;40.20;;;;;;5158361;27;8948;-65
2021/09/17 00:50:12;;;;;;;;;22.00;21.00;29.10;40.20;;;;;;5158165;27;8881;-64
2021/09/17 00:52:38;;;;;;;;;22.33;22.00;28.90;40.30;;;;;;5157950;27;8776;-64
2021/09/17 00:55:04;;;;;;;;;22.00;22.00;28.90;40.60;;;;;;5126945;27;8804;-64
2021/09/17 00:57:32;;;;;;;;;19.67;19.67;28.90;40.80;;;;;;5115568;28;8785;-65
2021/09/17 00:59:57;;;;;;;;;20.33;20.33;28.90;40.90;;;;;;5116770;28;8753;-64
2021/09/17 01:02:23;;;;;;;;;19.67;19.67;28.90;40.90;;;;;;5116511;28;8858;-64
2021/09/17 01:04:50;;;;;;;;;22.00;22.00;28.90;40.90;;;;;;5116510;28;8844;-65
2021/09/17 01:07:15;;;;;;;;;20.33;20.33;28.90;40.90;;;;;;5116653;28;8754;-63
2021/09/17 01:09:42;;;;;;;;;22.33;22.33;28.80;40.90;;;;;;5116500;28;8812;-64
2021/09/17 01:12:09;;;;;;;;;23.00;23.00;28.80;41.10;;;;;;5116292;28;8912;-64
2021/09/17 01:14:36;;;;;;;;;19.33;19.00;28.70;41.30;;;;;;5116468;28;9439;-66
2021/09/17 01:17:03;;;;;;;;;26.33;25.00;28.80;41.30;;;;;;5116016;28;12120;-65
2021/09/17 01:19:29;;;;;;;;;9.33;9.33;28.80;41.40;;;;;;5116413;28;8822;-64
2021/09/17 01:22:04;;;;;;;;;24.00;24.00;28.60;41.30;;;;;;5116112;28;8864;-63
2021/09/17 01:24:30;;;;;;;;;19.67;19.67;28.60;41.50;;;;;;5116308;28;8750;-63
2021/09/17 01:26:57;;;;;;;;;22.00;22.00;28.60;41.70;;;;;;5116046;28;8793;-63
2021/09/17 01:29:24;;;;;;;;;23.67;23.67;28.60;41.80;;;;;;5115822;28;8793;-63
2021/09/17 01:31:53;;;;;;;;;22.33;22.33;28.60;41.80;;;;;;5115694;28;8797;-63
2021/09/17 01:34:21;;;;;;;;;39.67;35.67;28.60;41.80;;;;;;5116017;28;9403;-63
2021/09/17 01:36:48;;;;;;;;;35.00;33.00;28.50;43.10;;;;;;5115836;28;8796;-62
2021/09/17 01:39:14;;;;;;;;;20.67;20.67;28.30;42.80;;;;;;5115911;28;8746;-63
2021/09/17 01:41:40;;;;;;;;;30.00;30.00;28.10;43.40;;;;;;5116078;28;8774;-63
2021/09/17 01:44:06;;;;;;;;;25.00;25.00;27.90;43.70;;;;;;5116002;28;8754;-63
2021/09/17 01:46:32;;;;;;;;;23.00;23.00;27.90;44.00;;;;;;5115897;28;8776;-63
2021/09/17 01:48:58;;;;;;;;;22.67;22.67;27.80;44.00;;;;;;5115576;28;8932;-63
2021/09/17 01:51:24;;;;;;;;;23.33;23.33;27.80;44.00;;;;;;5115574;28;8762;-63
2021/09/17 01:53:49;;;;;;;;;19.00;19.00;27.60;43.90;;;;;;5115729;28;8835;-63
2021/09/17 01:56:15;;;;;;;;;23.33;23.33;27.60;43.80;;;;;;5115376;28;8813;-63
2021/09/17 01:58:42;;;;;;;;;25.00;24.00;27.70;43.70;;;;;;5115389;28;8846;-63
2021/09/17 02:01:08;;;;;;;;;22.67;22.67;27.80;43.40;;;;;;5115632;28;8763;-64
2021/09/17 02:03:34;;;;;;;;;18.33;18.33;28.00;43.10;;;;;;5115343;28;8750;-63
2021/09/17 02:06:00;;;;;;;;;19.67;19.67;28.10;42.70;;;;;;5115264;28;8749;-64
2021/09/17 02:08:26;;;;;;;;;22.67;22.67;28.10;42.60;;;;;;5115219;28;8746;-64
2021/09/17 02:10:52;;;;;;;;;20.00;20.00;28.20;42.50;;;;;;5115196;28;8765;-65
2021/09/17 02:13:21;;;;;;;;;22.00;22.00;28.20;42.20;;;;;;5115145;28;8839;-64
2021/09/17 02:15:48;;;;;;;;;24.00;24.00;28.30;42.10;;;;;;5115435;28;9526;-64
2021/09/17 02:18:15;;;;;;;;;23.33;23.33;28.20;42.00;;;;;;5115323;28;8741;-65
2021/09/17 02:20:41;;;;;;;;;20.33;20.33;28.20;42.00;;;;;;5115081;28;8758;-63
2021/09/17 02:23:06;;;;;;;;;23.00;22.67;28.10;41.30;;;;;;5115306;28;11423;-64
2021/09/17 02:25:32;;;;;;;;;19.67;19.67;28.00;41.40;;;;;;5115218;28;8765;-64
2021/09/17 02:27:58;;;;;;;;;18.67;18.00;28.00;41.50;;;;;;5114870;28;8959;-64
2021/09/17 02:30:25;;;;;;;;;19.00;19.00;27.90;41.60;;;;;;5114673;28;8823;-63
2021/09/17 02:32:50;;;;;;;;;19.33;19.33;28.00;41.70;;;;;;5114901;28;8781;-64
2021/09/17 02:35:16;;;;;;;;;16.67;16.67;28.00;41.40;;;;;;5114693;28;11540;-63
2021/09/17 02:37:42;;;;;;;;;21.33;18.33;28.00;41.30;;;;;;5114883;28;8750;-64
2021/09/17 02:40:11;;;;;;;;;19.33;19.33;28.00;41.10;;;;;;5114794;28;8862;-63
2021/09/17 02:42:37;;;;;;;;;17.67;17.67;28.00;40.80;;;;;;5114535;28;8774;-63
2021/09/17 02:45:05;;;;;;;;;17.67;16.33;27.90;41.10;;;;;;5114815;28;9387;-63
2021/09/17 02:47:31;;;;;;;;;16.00;16.00;27.80;41.20;;;;;;5115172;28;11419;-64
2021/09/17 02:49:56;;;;;;;;;17.67;17.67;27.80;41.30;;;;;;5114907;28;8889;-64
2021/09/17 02:52:23;;;;;;;;;16.67;16.67;27.90;41.30;;;;;;5114921;28;9550;-63
2021/09/17 02:54:49;;;;;;;;;18.67;18.67;28.00;41.10;;;;;;5114672;28;8776;-63
2021/09/17 02:57:14;;;;;;;;;22.33;22.00;28.00;41.10;;;;;;5114999;28;11460;-64
2021/09/17 02:59:40;;;;;;;;;21.00;20.00;28.00;41.10;;;;;;5114685;28;8762;-65
2021/09/17 03:02:06;;;;;;;;;31.67;30.67;28.00;41.10;;;;;;5114631;28;8761;-64
2021/09/17 03:04:32;;;;;;;;;29.33;29.33;28.00;41.10;;;;;;5114690;28;8769;-64
2021/09/17 03:06:58;;;;;;;;;32.67;31.67;28.00;41.20;;;;;;5114557;28;8864;-64
2021/09/17 03:09:24;;;;;;;;;26.33;26.33;28.00;41.40;;;;;;5114714;28;8809;-64
2021/09/17 03:11:51;;;;;;;;;27.33;27.33;28.00;41.40;;;;;;5114514;28;8876;-64
2021/09/17 03:14:16;;;;;;;;;26.67;25.33;27.90;41.50;;;;;;5114746;28;9423;-65
2021/09/17 03:16:42;;;;;;;;;26.33;26.33;27.90;41.70;;;;;;5114793;28;8834;-66
2021/09/17 03:19:08;;;;;;;;;30.00;30.00;28.00;41.70;;;;;;5114433;28;8793;-64
2021/09/17 03:21:34;;;;;;;;;31.33;29.67;27.90;41.70;;;;;;5114566;28;8774;-65
2021/09/17 03:23:59;;;;;;;;;32.00;31.00;27.90;41.80;;;;;;5114435;28;8774;-63
2021/09/17 03:26:25;;;;;;;;;32.33;31.33;27.90;41.80;;;;;;5114371;28;8790;-64
2021/09/17 03:28:51;;;;;;;;;61.00;51.00;27.90;41.80;;;;;;5114330;28;8805;-64
2021/09/17 03:31:17;;;;;;;;;62.75;52.00;27.90;41.60;;;;;;5096168;28;8821;-64
2021/09/17 03:33:43;;;;;;;;;45.33;38.67;27.70;41.70;;;;;;5114619;28;8757;-64
2021/09/17 03:36:08;;;;;;;;;35.00;32.67;27.60;41.60;;;;;;5114418;28;8797;-64
2021/09/17 03:38:34;;;;;;;;;36.67;33.67;27.60;41.70;;;;;;5115327;27;8767;-65
2021/09/17 03:41:00;;;;;;;;;36.67;33.00;27.60;41.30;;;;;;5121859;28;8766;-64
2021/09/17 03:43:26;;;;;;;;;35.33;33.00;27.60;41.10;;;;;;5123681;28;8812;-64
2021/09/17 03:45:52;;;;;;;;;28.33;28.33;27.70;41.30;;;;;;5114159;28;8773;-64
2021/09/17 03:48:17;;;;;;;;;13.33;13.33;27.70;41.00;;;;;;5114252;28;8894;-65
2021/09/17 03:50:43;;;;;;;;;26.00;26.00;27.50;41.00;;;;;;5114333;28;8796;-65
2021/09/17 03:53:09;;;;;;;;;22.33;22.33;27.50;41.80;;;;;;5114167;28;8769;-65
2021/09/17 03:55:35;;;;;;;;;21.00;21.00;27.50;42.40;;;;;;5116803;28;8817;-65
2021/09/17 03:58:02;;;;;;;;;18.67;18.67;27.40;42.30;;;;;;5118073;28;8801;-65
2021/09/17 04:00:28;;;;;;;;;17.33;17.33;27.40;42.20;;;;;;5117714;28;8785;-64
2021/09/17 04:14:44;;;;;;;;;20.00;20.00;27.60;40.70;;;;;;5150186;27;13389;-64
2021/09/17 04:17:10;;;;;;;;;20.67;20.67;27.70;41.70;;;;;;5153271;27;8771;-65
2021/09/17 04:19:36;;;;;;;;;22.00;22.00;27.60;41.70;;;;;;5153201;27;8763;-64
2021/09/17 04:22:04;;;;;;;;;18.67;18.00;27.50;41.70;;;;;;5153003;27;8763;-64
2021/09/17 04:24:30;;;;;;;;;15.67;15.67;27.40;41.60;;;;;;5152940;27;11426;-64
2021/09/17 04:26:56;;;;;;;;;18.00;18.00;27.40;41.40;;;;;;5135342;27;11439;-65
2021/09/17 04:29:22;;;;;;;;;22.00;22.00;27.40;41.60;;;;;;5132341;27;8754;-64
2021/09/17 04:31:47;;;;;;;;;20.33;20.33;27.50;41.80;;;;;;5132506;27;8754;-64
2021/09/17 04:34:13;;;;;;;;;20.00;20.00;27.50;42.00;;;;;;5132391;27;8850;-64
2021/09/17 04:36:39;;;;;;;;;17.00;17.00;27.40;42.20;;;;;;5132099;27;8754;-64
2021/09/17 04:39:05;;;;;;;;;18.67;18.67;27.40;42.40;;;;;;5136701;27;8774;-65
2021/09/17 04:41:30;;;;;;;;;19.33;19.33;27.40;42.60;;;;;;5141349;27;8786;-64
2021/09/17 04:43:56;;;;;;;;;22.00;22.00;27.50;42.20;;;;;;5134792;27;8835;-66
2021/09/17 04:46:22;;;;;;;;;21.00;21.00;27.50;42.20;;;;;;5143886;27;8771;-64
2021/09/17 04:48:48;;;;;;;;;24.00;24.00;27.60;42.50;;;;;;5141198;27;8769;-65
2021/09/17 04:51:13;;;;;;;;;26.33;26.33;27.60;42.50;;;;;;5131781;27;8807;-65
2021/09/17 04:53:39;;;;;;;;;18.00;18.00;27.60;42.40;;;;;;5132838;27;8776;-65
2021/09/17 04:56:05;;;;;;;;;25.33;25.33;27.60;42.10;;;;;;5136635;27;8783;-64
2021/09/17 04:58:30;;;;;;;;;18.67;18.67;27.60;42.30;;;;;;5138227;27;8764;-64
2021/09/17 05:00:56;;;;;;;;;23.33;23.33;27.60;41.90;;;;;;5131577;27;8771;-65
2021/09/17 05:03:22;;;;;;;;;26.33;26.33;27.60;42.10;;;;;;5131459;27;8826;-64
2021/09/17 05:05:48;;;;;;;;;25.67;25.67;27.50;42.30;;;;;;5131423;27;8771;-64
2021/09/17 05:08:14;;;;;;;;;23.67;23.67;27.50;42.40;;;;;;5136735;27;8789;-65
2021/09/17 05:10:39;;;;;;;;;25.00;25.00;27.50;42.30;;;;;;5142170;27;8769;-65
2021/09/17 05:13:05;;;;;;;;;29.00;29.00;27.50;42.30;;;;;;5145446;27;8851;-66
2021/09/17 05:15:31;;;;;;;;;21.00;21.00;27.60;42.00;;;;;;5121804;27;8790;-65
2021/09/17 05:17:57;;;;;;;;;21.00;20.33;27.60;41.70;;;;;;5117544;28;8755;-64
2021/09/17 05:20:22;;;;;;;;;20.67;20.67;27.60;41.30;;;;;;5117501;28;8790;-63
2021/09/17 05:22:48;;;;;;;;;20.67;20.67;27.70;41.10;;;;;;5122729;27;8811;-64
2021/09/17 05:25:14;;;;;;;;;17.67;17.67;27.60;40.90;;;;;;5123660;27;8870;-63
2021/09/17 05:27:41;;;;;;;;;22.00;22.00;27.60;41.10;;;;;;5136877;27;8748;-64
2021/09/17 05:30:08;;;;;;;;;21.00;21.00;27.70;41.00;;;;;;5138299;27;8743;-65
2021/09/17 05:32:34;;;;;;;;;21.33;21.33;27.80;40.60;;;;;;5137964;27;11428;-65
2021/09/17 05:35:00;;;;;;;;;18.67;18.67;27.80;40.40;;;;;;5138063;27;11419;-64
2021/09/17 05:37:26;;;;;;;;;18.33;18.33;27.90;40.70;;;;;;5138041;27;11509;-64
2021/09/17 05:39:52;;;;;;;;;19.67;19.67;28.00;40.40;;;;;;5137773;27;8930;-64
2021/09/17 05:42:20;;;;;;;;;19.00;19.00;28.00;40.20;;;;;;5137599;27;8822;-64
2021/09/17 05:44:45;;;;;;;;;16.33;16.33;28.10;40.20;;;;;;5137820;27;8898;-64
2021/09/17 05:47:11;;;;;;;;;21.00;21.00;28.20;40.30;;;;;;5137779;27;12474;-64
2021/09/17 05:49:37;;;;;;;;;20.00;20.00;28.30;39.60;;;;;;5130202;27;8775;-63
2021/09/17 05:52:03;;;;;;;;;16.67;16.67;28.40;39.30;;;;;;5118039;27;8779;-64
2021/09/17 05:54:32;;;;;;;;;20.67;20.00;28.50;39.30;;;;;;5116990;27;8833;-64
2021/09/17 05:56:59;;;;;;;;;21.00;21.00;28.60;38.90;;;;;;5129728;27;11517;-64
2021/09/17 05:59:24;;;;;;;;;22.67;22.67;28.70;39.30;;;;;;5137685;27;11415;-64
2021/09/17 06:01:50;;;;;;;;;22.67;22.67;28.70;39.20;;;;;;5137754;27;9425;-63
2021/09/17 06:04:16;;;;;;;;;22.33;22.33;28.80;38.80;;;;;;5135882;27;9465;-64
2021/09/17 06:06:42;;;;;;;;;23.33;23.33;28.80;38.80;;;;;;5120819;27;8762;-63
2021/09/17 06:09:08;;;;;;;;;30.00;28.67;28.80;39.00;;;;;;5137509;27;8767;-64
2021/09/17 06:11:33;;;;;;;;;27.00;27.00;28.80;39.20;;;;;;5107953;28;9391;-63
2021/09/17 06:13:59;;;;;;;;;25.33;25.33;28.80;39.40;;;;;;5116412;28;8841;-64
2021/09/17 06:16:25;;;;;;;;;30.00;30.00;28.90;39.60;;;;;;5132962;27;8792;-65
2021/09/17 06:18:51;;;;;;;;;26.33;26.33;28.90;39.80;;;;;;5137160;27;8768;-64
2021/09/17 06:21:17;;;;;;;;;24.33;24.33;28.80;40.70;;;;;;5136990;27;8767;-64
2021/09/17 06:23:42;;;;;;;;;25.67;25.67;28.90;41.00;;;;;;5137186;27;8780;-64
2021/09/17 06:26:09;;;;;;;;;30.00;30.00;28.90;41.60;;;;;;5133936;27;8732;-65
2021/09/17 06:28:35;;;;;;;;;26.00;26.00;28.90;41.80;;;;;;5115953;28;8773;-63
2021/09/17 06:31:01;;;;;;;;;23.33;23.33;28.90;42.30;;;;;;5116236;28;8796;-65
2021/09/17 06:33:27;;;;;;;;;22.33;22.33;29.00;42.30;;;;;;5117697;27;8857;-65
2021/09/17 06:35:53;;;;;;;;;23.00;23.00;29.00;42.60;;;;;;5116855;27;8861;-64
2021/09/17 06:38:18;;;;;;;;;25.67;25.67;29.00;42.50;;;;;;5125796;27;8790;-64
2021/09/17 06:40:44;;;;;;;;;26.67;26.67;29.10;42.20;;;;;;5123860;27;8770;-65
2021/09/17 06:43:10;;;;;;;;;26.00;26.00;29.10;43.00;;;;;;5118923;27;8830;-65
2021/09/17 06:45:36;;;;;;;;;27.67;27.67;29.10;41.60;;;;;;5106813;27;8784;-64
2021/09/17 06:48:02;;;;;;;;;29.33;29.33;29.10;41.50;;;;;;5115477;28;8748;-64
2021/09/17 06:50:29;;;;;;;;;29.67;29.67;29.20;41.50;;;;;;5118245;27;8767;-64
2021/09/17 06:52:56;;;;;;;;;25.67;25.67;29.20;41.20;;;;;;5118331;27;8767;-62
2021/09/17 06:55:26;;;;;;;;;28.67;28.67;29.30;41.20;;;;;;5124272;27;8751;-64
2021/09/17 06:57:57;;;;;;;;;29.00;29.00;29.30;40.70;;;;;;5115707;28;8772;-62
2021/09/17 07:00:26;;;;;;;;;28.33;27.33;29.40;40.50;;;;;;5115674;28;8769;-61
2021/09/17 07:02:51;;;;;;;;;26.67;26.67;29.40;40.30;;;;;;5115161;27;8838;-61
2021/09/17 07:05:20;;;;;;;;;52.75;44.75;29.40;40.20;;;;;;5115555;27;9425;-62
2021/09/17 07:07:46;;;;;;;;;47.67;41.00;29.50;39.50;;;;;;5099760;28;8813;-61
2021/09/17 07:10:13;;;;;;;;;29.33;29.33;29.50;39.60;;;;;;5115461;28;8766;-63
2021/09/17 07:12:39;;;;;;;;;24.00;24.00;29.50;39.40;;;;;;5135766;27;8895;-62
2021/09/17 07:15:06;;;;;;;;;24.67;24.67;29.60;39.30;;;;;;5118313;27;9413;-62
2021/09/17 07:17:32;;;;;;;;;28.33;28.33;29.60;39.00;;;;;;5120111;27;8774;-61
2021/09/17 07:19:59;;;;;;;;;30.33;30.00;29.70;39.50;;;;;;5127494;27;8802;-60
2021/09/17 07:22:26;;;;;;;;;28.67;28.67;29.60;39.10;;;;;;5120432;27;8795;-61
2021/09/17 07:24:52;;;;;;;;;28.67;28.67;29.60;39.00;;;;;;5120024;27;8756;-61
2021/09/17 07:27:18;;;;;;;;;26.67;26.67;29.60;39.60;;;;;;5123692;27;8778;-62
2021/09/17 07:29:43;;;;;;;;;30.67;29.67;29.60;39.40;;;;;;5129662;27;8866;-61
2021/09/17 07:32:09;;;;;;;;;29.67;29.67;29.70;40.50;;;;;;5126867;27;8782;-61
2021/09/17 07:34:35;;;;;;;;;28.00;28.00;29.70;39.00;;;;;;5115347;27;8756;-61
2021/09/17 07:37:01;;;;;;;;;29.33;29.33;29.70;39.00;;;;;;5104600;28;8861;-61
2021/09/17 07:39:28;;;;;;;;;28.00;28.00;29.70;39.50;;;;;;5115003;28;8849;-62
2021/09/17 07:41:53;;;;;;;;;23.33;23.33;29.80;39.40;;;;;;5114918;28;8761;-61
2021/09/17 07:44:19;;;;;;;;;25.33;25.33;29.70;39.10;;;;;;5117933;27;8795;-62
2021/09/17 07:46:45;;;;;;;;;25.00;25.00;29.60;39.00;;;;;;5125872;27;9868;-62
2021/09/17 07:49:12;;;;;;;;;25.67;25.67;29.70;39.00;;;;;;5115962;27;8880;-61
2021/09/17 07:51:38;;;;;;;;;26.00;26.00;29.60;39.40;;;;;;5126344;27;8864;-61
2021/09/17 07:54:04;;;;;;;;;23.33;23.33;29.70;39.40;;;;;;5114718;28;8786;-63
2021/09/17 07:56:30;;;;;;;;;24.00;23.33;29.60;39.00;;;;;;5116083;27;9719;-62
2021/09/17 07:58:55;;;;;;;;;26.00;26.00;29.50;38.90;;;;;;5124175;27;8771;-61
2021/09/17 08:01:21;;;;;;;;;24.00;24.00;29.50;39.50;;;;;;5124505;27;8825;-64
2021/09/17 08:03:47;;;;;;;;;23.33;23.00;29.50;39.60;;;;;;5122551;27;8837;-61
2021/09/17 08:06:14;;;;;;;;;24.00;24.00;29.60;39.50;;;;;;5118923;27;8754;-63
2021/09/17 08:08:41;;;;;;;;;22.00;22.00;29.60;39.40;;;;;;5120681;27;8854;-61
2021/09/17 08:11:07;;;;;;;;;21.00;21.00;29.50;38.90;;;;;;5135100;27;11507;-63
2021/09/17 08:13:33;;;;;;;;;23.00;23.00;29.70;39.00;;;;;;5123320;28;8825;-62
2021/09/17 08:15:59;;;;;;;;;23.00;23.00;29.80;39.10;;;;;;5115288;28;8845;-62
2021/09/17 08:18:25;;;;;;;;;25.67;25.67;29.90;38.80;;;;;;5116813;27;8766;-61
2021/09/17 08:20:54;;;;;;;;;24.33;24.33;30.00;38.40;;;;;;5120046;27;8789;-64
2021/09/17 08:23:20;;;;;;;;;25.33;25.33;30.00;38.30;;;;;;5125582;27;9436;-61
2021/09/17 08:25:47;;;;;;;;;26.00;25.00;30.10;38.00;;;;;;5123309;27;8936;-62
2021/09/17 08:28:13;;;;;;;;;26.00;24.67;30.30;37.70;;;;;;5126464;27;8768;-62
2021/09/17 08:30:39;;;;;;;;;25.00;25.00;30.30;37.40;;;;;;5119818;27;8876;-61
2021/09/17 08:33:05;;;;;;;;;28.00;28.00;30.40;37.40;;;;;;5120810;28;8850;-61
2021/09/17 08:35:31;;;;;;;;;24.33;24.00;30.60;37.40;;;;;;5116378;27;8774;-64
2021/09/17 08:37:57;;;;;;;;;27.00;27.00;30.50;37.40;;;;;;5117989;28;8767;-68
2021/09/17 08:40:25;;;;;;;;;15.67;15.67;30.60;36.50;;;;;;5114726;28;8748;-68
2021/09/17 08:42:51;;;;;;;;;31.33;30.33;30.40;36.80;;;;;;5114630;28;8953;-66
2021/09/17 08:45:17;;;;;;;;;32.67;31.67;30.50;36.90;;;;;;5117645;28;8886;-65
2021/09/17 08:47:47;;;;;;;;;32.67;31.00;30.70;36.60;;;;;;5114432;28;8748;-62
2021/09/17 08:50:13;;;;;;;;;34.67;33.67;31.00;36.10;;;;;;5116680;28;8763;-64
2021/09/17 08:52:39;;;;;;;;;35.67;33.00;31.20;35.00;;;;;;5118276;28;8766;-64
2021/09/17 08:55:05;;;;;;;;;28.67;28.67;31.40;34.80;;;;;;5118298;27;8779;-64
2021/09/17 08:57:31;;;;;;;;;29.33;29.33;31.50;34.20;;;;;;5118299;28;8771;-66
2021/09/17 08:59:57;;;;;;;;;25.67;25.67;31.60;33.50;;;;;;5118099;28;8855;-63
2021/09/17 09:02:29;;;;;;;;;27.33;27.33;31.80;33.70;;;;;;5117715;27;8819;-64
2021/09/17 09:05:06;;;;;;;;;26.00;26.00;31.80;32.80;;;;;;5117946;28;8836;-65
2021/09/17 09:07:35;;;;;;;;;22.33;22.33;32.00;32.90;;;;;;5117903;28;11492;-64
2021/09/17 09:33:33;;;;;;;;;22.00;22.00;29.00;36.50;;;;;;5108651;27;13469;-67
2021/09/17 09:36:05;;;;;;;;;23.00;23.00;31.20;33.20;;;;;;5111730;28;11466;-63
2021/09/17 09:38:36;;;;;;;;;25.67;24.67;31.40;31.70;;;;;;5111076;28;11480;-69
2021/09/17 09:41:04;;;;;;;;;21.00;21.00;31.50;30.80;;;;;;5111972;28;11507;-67
2021/09/17 09:43:32;;;;;;;;;19.00;19.00;31.60;30.30;;;;;;5111705;28;11456;-71
2021/09/17 09:46:23;;;;;;;;;21.00;21.00;31.70;30.70;;;;;;5109842;28;11502;-71
2021/09/17 09:49:12;;;;;;;;;22.00;22.00;31.80;30.40;;;;;;5100250;28;11502;-65
2021/09/17 09:51:52;;;;;;;;;20.67;20.67;31.80;30.40;;;;;;5091541;28;11482;-62
2021/09/17 09:54:18;;;;;;;;;18.00;18.00;31.90;29.90;;;;;;5108649;28;8766;-60
2021/09/17 09:56:45;;;;;;;;;19.33;19.33;32.00;30.00;;;;;;5110327;28;12176;-64
2021/09/17 09:59:10;;;;;;;;;25.00;25.00;32.40;30.30;;;;;;5111541;28;8750;-63
2021/09/17 10:01:38;;;;;;;;;19.67;19.67;32.50;29.80;;;;;;5099536;28;11588;-64
2021/09/17 10:04:05;;;;;;;;;23.00;23.00;32.60;28.70;;;;;;5098590;28;8857;-63
2021/09/17 10:06:35;;;;;;;;;24.00;24.00;32.40;28.60;;;;;;5090759;28;11629;-62
2021/09/17 10:09:02;;;;;;;;;24.33;24.33;32.40;28.50;;;;;;5091069;28;8834;-64
2021/09/17 10:11:28;;;;;;;;;22.67;22.67;32.40;29.10;;;;;;5091143;28;8780;-63
2021/09/17 10:13:57;;;;;;;;;22.67;22.67;32.40;29.10;;;;;;5106066;28;8810;-63
2021/09/17 10:16:24;;;;;;;;;22.33;22.33;32.40;29.70;;;;;;5111261;28;8884;-66
2021/09/17 10:18:51;;;;;;;;;23.33;23.33;32.50;28.60;;;;;;5110980;28;11538;-62
2021/09/17 10:22:02;;;;;;;;;21.00;21.00;32.80;29.80;;;;;;5111343;28;8867;-62
2021/09/17 10:24:38;;;;;;;;;22.33;22.33;33.30;28.90;;;;;;5094020;28;11577;-62
2021/09/17 10:27:12;;;;;;;;;20.00;20.00;33.60;27.40;;;;;;5110914;28;11605;-62
2021/09/17 10:30:06;;;;;;;;;19.00;19.00;33.60;27.10;;;;;;5110962;28;11475;-62
2021/09/17 10:32:35;;;;;;;;;19.00;19.00;33.70;26.90;;;;;;5057431;28;11620;-61
2021/09/17 10:35:04;;;;;;;;;19.67;19.67;34.10;27.50;;;;;;5011492;28;11553;-62
2021/09/17 10:37:50;;;;;;;;;23.33;23.33;34.20;27.50;;;;;;5001231;28;11491;-63
2021/09/17 10:40:16;;;;;;;;;23.00;23.00;34.20;28.30;;;;;;4997849;28;12285;-64
2021/09/17 10:43:10;;;;;;;;;24.67;24.67;34.00;26.90;;;;;;5004942;28;11515;-63
2021/09/17 10:45:39;;;;;;;;;19.33;19.33;34.20;26.70;;;;;;5003567;28;11521;-63
2021/09/17 10:48:07;;;;;;;;;19.00;19.00;34.40;25.60;;;;;;4998174;28;11492;-63
2021/09/17 10:50:48;;;;;;;;;15.50;15.50;34.40;26.20;;;;;;5002830;28;11518;-63
2021/09/17 10:53:40;;;;;;;;;20.00;20.00;34.30;25.60;;;;;;5060202;28;11482;-65
2021/09/17 10:56:11;;;;;;;;;18.75;18.75;33.90;25.40;;;;;;5022482;28;11485;-63
2021/09/17 10:58:40;;;;;;;;;20.67;20.67;33.70;25.60;;;;;;5013699;28;11451;-63
2021/09/17 11:01:10;;;;;;;;;20.33;20.33;33.50;25.80;;;;;;5010528;28;11508;-63
2021/09/17 11:03:36;;;;;;;;;15.75;15.75;33.20;26.20;;;;;;5010908;28;11466;-64
2021/09/17 11:06:23;;;;;;;;;19.33;18.00;33.00;26.10;;;;;;5012110;28;12175;-65
2021/09/17 11:09:04;;;;;;;;;18.00;18.00;32.80;26.60;;;;;;5011023;28;8766;-63
2021/09/17 11:11:44;;;;;;;;;19.00;19.00;32.60;26.40;;;;;;5008032;28;11499;-63
2021/09/17 11:14:16;;;;;;;;;19.67;19.00;32.50;27.00;;;;;;5007941;28;11500;-62
2021/09/17 11:16:45;;;;;;;;;20.67;20.67;32.60;27.00;;;;;;5013544;28;11485;-65
2021/09/17 11:19:14;;;;;;;;;20.00;20.00;32.70;27.10;;;;;;5009395;28;11444;-63
2021/09/17 11:21:43;;;;;;;;;20.00;20.00;32.80;27.20;;;;;;5012072;28;11464;-62
2021/09/17 11:24:39;;;;;;;;;21.00;21.00;32.80;26.90;;;;;;5008259;28;11656;-62
2021/09/17 11:27:05;;;;;;;;;18.67;18.67;32.90;27.10;;;;;;5043516;28;11523;-64
2021/09/17 11:29:31;;;;;;;;;20.67;20.67;32.90;27.00;;;;;;5049395;28;11560;-64
2021/09/17 11:32:01;;;;;;;;;22.33;22.33;32.70;27.10;;;;;;5050183;28;8835;-64
2021/09/17 11:34:28;;;;;;;;;14.00;14.00;32.70;27.50;;;;;;5052230;28;8769;-64
2021/09/17 11:36:58;;;;;;;;;21.00;21.00;32.80;27.70;;;;;;5052297;28;11485;-64
2021/09/17 11:39:26;;;;;;;;;22.00;22.00;32.80;27.00;;;;;;5052419;28;11571;-64
2021/09/17 11:41:54;;;;;;;;;19.00;18.67;32.80;27.50;;;;;;5049665;28;11542;-64
2021/09/17 11:44:38;;;;;;;;;22.67;22.67;32.80;27.40;;;;;;5049241;28;12324;-64
2021/09/17 11:47:09;;;;;;;;;23.00;23.00;32.70;27.20;;;;;;5050240;28;11699;-62
2021/09/17 11:49:38;;;;;;;;;21.00;21.00;32.60;27.40;;;;;;5048608;28;8786;-64
2021/09/17 11:52:07;;;;;;;;;25.33;25.33;32.60;27.90;;;;;;5050689;28;11553;-62
2021/09/17 11:54:33;;;;;;;;;23.00;22.00;32.50;28.30;;;;;;5049773;28;8788;-64
2021/09/17 11:57:03;;;;;;;;;24.33;24.33;32.50;28.40;;;;;;5051907;28;11507;-63
2021/09/17 11:59:40;;;;;;;;;23.33;23.33;32.50;28.50;;;;;;5047676;28;8759;-64
2021/09/17 12:02:22;;;;;;;;;31.67;30.67;32.50;28.60;;;;;;5051847;28;8802;-63
2021/09/17 12:04:56;;;;;;;;;27.33;27.33;32.50;28.60;;;;;;5009500;28;8770;-64
2021/09/17 12:07:23;;;;;;;;;27.67;27.67;32.40;29.00;;;;;;5011294;28;8766;-63
2021/09/17 12:09:50;;;;;;;;;28.67;28.67;32.50;29.00;;;;;;5009276;28;8769;-63
2021/09/17 12:12:16;;;;;;;;;28.00;28.00;32.50;29.00;;;;;;5011470;28;8802;-63
2021/09/17 12:14:56;;;;;;;;;29.00;29.00;32.50;29.00;;;;;;5011255;28;8797;-64
2021/09/17 12:17:23;;;;;;;;;27.67;27.67;32.40;29.10;;;;;;5011474;28;8766;-63
2021/09/17 12:20:08;;;;;;;;;32.00;30.67;32.40;29.20;;;;;;5011182;28;8854;-63
2021/09/17 12:22:39;;;;;;;;;24.67;24.67;32.30;29.30;;;;;;5013928;28;8812;-63
2021/09/17 12:25:11;;;;;;;;;24.33;24.33;32.30;29.10;;;;;;5011114;28;8750;-62
2021/09/17 12:27:47;;;;;;;;;26.67;26.67;32.30;29.40;;;;;;5011033;28;11497;-62
2021/09/17 12:30:22;;;;;;;;;22.67;22.33;32.20;29.50;;;;;;5009907;28;11519;-63
2021/09/17 12:33:09;;;;;;;;;23.33;23.33;32.20;29.50;;;;;;5008349;28;8817;-63
2021/09/17 12:35:36;;;;;;;;;24.33;24.33;32.20;29.90;;;;;;5008142;28;11561;-65
2021/09/17 12:38:06;;;;;;;;;23.67;22.33;32.30;29.60;;;;;;5010468;28;11486;-63
2021/09/17 12:40:35;;;;;;;;;24.67;24.67;32.20;29.70;;;;;;5024643;28;8897;-63
2021/09/17 12:43:09;;;;;;;;;24.00;24.00;32.20;29.80;;;;;;5010916;28;8773;-62
2021/09/17 12:45:38;;;;;;;;;25.67;25.67;32.10;29.80;;;;;;5009148;28;11609;-63
2021/09/17 12:48:06;;;;;;;;;23.67;23.67;32.10;29.60;;;;;;5010986;28;8762;-63
2021/09/17 12:50:38;;;;;;;;;26.00;26.00;32.20;29.40;;;;;;5010509;28;8798;-63
2021/09/17 12:53:09;;;;;;;;;24.00;24.00;32.80;29.30;;;;;;5022153;28;8808;-64
2021/09/17 12:55:35;;;;;;;;;25.33;24.33;33.80;28.40;;;;;;5010066;28;11532;-63
2021/09/17 12:58:14;;;;;;;;;28.00;26.67;35.30;26.90;;;;;;5010630;28;8850;-63
2021/09/17 13:00:41;;;;;;;;;25.00;25.00;36.00;26.00;;;;;;5009497;28;11512;-64
2021/09/17 13:03:12;;;;;;;;;24.67;24.67;36.80;25.00;;;;;;5008319;28;9430;-64
2021/09/17 13:05:42;;;;;;;;;13.67;13.67;37.50;24.50;;;;;;5010583;28;11529;-64
2021/09/17 13:08:09;;;;;;;;;22.67;21.67;38.50;23.90;;;;;;5008647;28;8777;-64
2021/09/17 13:10:37;;;;;;;;;28.67;28.67;39.10;23.20;;;;;;5011947;28;11551;-64
2021/09/17 13:13:06;;;;;;;;;26.00;26.00;38.30;23.30;;;;;;5010843;28;8825;-64
2021/09/17 13:15:32;;;;;;;;;25.67;25.67;37.50;23.80;;;;;;5011809;28;11478;-71